sensor_id;sensor_type;location;lat;lon;timestamp;temperature;humidity
14397;DHT22;50653;0.000;0.000;2022-09-09T00:03:49;17.10;98.20
14397;DHT22;50653;0.000;0.000;2022-09-09T00:06:20;17.10;98.30
14397;DHT22;50653;0.000;0.000;2022-09-09T00:09:04;17.10;98.20
14397;DHT22;50653;0.000;0.000;2022-09-09T00:11:51;17.00;98.30
14397;DHT22;50653;0.000;0.000;2022-09-09T00:14:34;17.10;98.30
14397;DHT22;50653;0.000;0.000;2022-09-09T00:17:07;17.10;98.10
14397;DHT22;50653;0.000;0.000;2022-09-09T00:22:41;17.00;98.20
14397;DHT22;50653;0.000;0.000;2022-09-09T00:25:21;17.00;98.10
14397;DHT22;50653;0.000;0.000;2022-09-09T00:27:50;17.00;98.00
14397;DHT22;50653;0.000;0.000;2022-09-09T00:30:17;16.90;98.00
14397;DHT22;50653;0.000;0.000;2022-09-09T00:32:46;17.00;98.20
14397;DHT22;50653;0.000;0.000;2022-09-09T00:35:21;17.00;98.20
14397;DHT22;50653;0.000;0.000;2022-09-09T00:37:48;16.90;98.20
14397;DHT22;50653;0.000;0.000;2022-09-09T00:40:35;16.90;98.60
14397;DHT22;50653;0.000;0.000;2022-09-09T00:43:21;16.90;98.40
14397;DHT22;50653;0.000;0.000;2022-09-09T00:51:59;16.90;98.30
14397;DHT22;50653;0.000;0.000;2022-09-09T00:57:31;16.90;98.30
14397;DHT22;50653;0.000;0.000;2022-09-09T01:03:02;16.90;98.40
14397;DHT22;50653;0.000;0.000;2022-09-09T01:08:03;16.90;98.20
14397;DHT22;50653;0.000;0.000;2022-09-09T01:10:44;16.90;98.30
14397;DHT22;50653;0.000;0.000;2022-09-09T01:13:20;16.90;98.10
14397;DHT22;50653;0.000;0.000;2022-09-09T01:15:48;17.00;97.90
14397;DHT22;50653;0.000;0.000;2022-09-09T01:18:17;16.90;97.80
14397;DHT22;50653;0.000;0.000;2022-09-09T01:20:53;16.90;98.00
14397;DHT22;50653;0.000;0.000;2022-09-09T01:23:36;16.90;97.80
14397;DHT22;50653;0.000;0.000;2022-09-09T01:26:17;16.90;97.80
14397;DHT22;50653;0.000;0.000;2022-09-09T01:28:47;16.90;97.70
14397;DHT22;50653;0.000;0.000;2022-09-09T01:31:38;16.90;97.50
14397;DHT22;50653;0.000;0.000;2022-09-09T01:34:13;16.90;97.40
14397;DHT22;50653;0.000;0.000;2022-09-09T01:39:21;16.90;97.30
14397;DHT22;50653;0.000;0.000;2022-09-09T01:41:55;16.90;97.20
14397;DHT22;50653;0.000;0.000;2022-09-09T01:44:21;16.90;97.10
14397;DHT22;50653;0.000;0.000;2022-09-09T01:46:47;17.00;97.20
14397;DHT22;50653;0.000;0.000;2022-09-09T01:49:19;16.90;97.00
14397;DHT22;50653;0.000;0.000;2022-09-09T01:51:50;17.00;96.90
14397;DHT22;50653;0.000;0.000;2022-09-09T01:54:23;17.00;96.90
14397;DHT22;50653;0.000;0.000;2022-09-09T01:57:10;17.00;96.80
14397;DHT22;50653;0.000;0.000;2022-09-09T02:08:06;17.00;96.60
14397;DHT22;50653;0.000;0.000;2022-09-09T02:13:32;16.90;96.50
14397;DHT22;50653;0.000;0.000;2022-09-09T02:16:03;16.90;96.80
14397;DHT22;50653;0.000;0.000;2022-09-09T02:19:02;16.80;96.70
14397;DHT22;50653;0.000;0.000;2022-09-09T02:21:42;16.90;96.80
14397;DHT22;50653;0.000;0.000;2022-09-09T02:24:09;16.80;96.90
14397;DHT22;50653;0.000;0.000;2022-09-09T02:26:43;16.70;97.20
14397;DHT22;50653;0.000;0.000;2022-09-09T02:29:19;16.90;96.90
14397;DHT22;50653;0.000;0.000;2022-09-09T02:31:47;16.80;96.80
14397;DHT22;50653;0.000;0.000;2022-09-09T02:34:21;16.90;96.60
14397;DHT22;50653;0.000;0.000;2022-09-09T02:36:48;16.90;96.50
14397;DHT22;50653;0.000;0.000;2022-09-09T02:39:15;16.90;96.40
14397;DHT22;50653;0.000;0.000;2022-09-09T02:41:41;16.90;96.30
14397;DHT22;50653;0.000;0.000;2022-09-09T02:44:15;16.90;96.30
14397;DHT22;50653;0.000;0.000;2022-09-09T02:52:26;16.90;96.20
14397;DHT22;50653;0.000;0.000;2022-09-09T02:54:58;16.80;96.00
14397;DHT22;50653;0.000;0.000;2022-09-09T02:57:30;16.80;96.00
14397;DHT22;50653;0.000;0.000;2022-09-09T02:59:58;16.80;96.10
14397;DHT22;50653;0.000;0.000;2022-09-09T03:02:24;16.70;96.20
14397;DHT22;50653;0.000;0.000;2022-09-09T03:04:54;16.70;96.20
14397;DHT22;50653;0.000;0.000;2022-09-09T03:07:20;16.80;95.90
14397;DHT22;50653;0.000;0.000;2022-09-09T03:09:47;16.80;95.70
14397;DHT22;50653;0.000;0.000;2022-09-09T03:12:15;16.90;95.50
14397;DHT22;50653;0.000;0.000;2022-09-09T03:14:41;16.90;95.60
14397;DHT22;50653;0.000;0.000;2022-09-09T03:17:08;16.90;95.70
14397;DHT22;50653;0.000;0.000;2022-09-09T03:19:39;16.90;95.70
14397;DHT22;50653;0.000;0.000;2022-09-09T03:22:09;16.80;95.80
14397;DHT22;50653;0.000;0.000;2022-09-09T03:24:37;16.80;95.70
14397;DHT22;50653;0.000;0.000;2022-09-09T03:27:04;16.80;95.70
14397;DHT22;50653;0.000;0.000;2022-09-09T03:29:29;16.80;95.60
14397;DHT22;50653;0.000;0.000;2022-09-09T03:31:58;16.80;95.50
14397;DHT22;50653;0.000;0.000;2022-09-09T03:34:24;16.80;95.50
14397;DHT22;50653;0.000;0.000;2022-09-09T03:36:49;16.80;95.60
14397;DHT22;50653;0.000;0.000;2022-09-09T03:39:15;16.80;95.60
14397;DHT22;50653;0.000;0.000;2022-09-09T03:41:42;16.70;95.50
14397;DHT22;50653;0.000;0.000;2022-09-09T03:44:10;16.70;95.50
14397;DHT22;50653;0.000;0.000;2022-09-09T03:46:38;16.60;95.60
14397;DHT22;50653;0.000;0.000;2022-09-09T03:49:04;16.70;95.60
14397;DHT22;50653;0.000;0.000;2022-09-09T03:51:31;16.70;95.60
14397;DHT22;50653;0.000;0.000;2022-09-09T03:53:57;16.60;95.80
14397;DHT22;50653;0.000;0.000;2022-09-09T03:56:25;16.60;96.00
14397;DHT22;50653;0.000;0.000;2022-09-09T03:58:50;16.60;95.80
14397;DHT22;50653;0.000;0.000;2022-09-09T04:01:17;16.70;95.80
14397;DHT22;50653;0.000;0.000;2022-09-09T04:03:44;16.70;95.80
14397;DHT22;50653;0.000;0.000;2022-09-09T04:06:11;16.70;95.90
14397;DHT22;50653;0.000;0.000;2022-09-09T04:08:39;16.60;95.90
14397;DHT22;50653;0.000;0.000;2022-09-09T04:11:06;16.70;96.10
14397;DHT22;50653;0.000;0.000;2022-09-09T04:13:34;16.60;96.10
14397;DHT22;50653;0.000;0.000;2022-09-09T04:16:02;16.60;96.00
14397;DHT22;50653;0.000;0.000;2022-09-09T04:18:29;16.60;96.00
14397;DHT22;50653;0.000;0.000;2022-09-09T04:20:55;16.60;95.90
14397;DHT22;50653;0.000;0.000;2022-09-09T04:23:27;16.60;95.80
14397;DHT22;50653;0.000;0.000;2022-09-09T04:25:57;16.60;95.80
14397;DHT22;50653;0.000;0.000;2022-09-09T04:28:25;16.60;95.80
14397;DHT22;50653;0.000;0.000;2022-09-09T04:30:52;16.60;95.80
14397;DHT22;50653;0.000;0.000;2022-09-09T04:33:18;16.60;95.80
14397;DHT22;50653;0.000;0.000;2022-09-09T04:35:49;16.70;95.70
14397;DHT22;50653;0.000;0.000;2022-09-09T04:38:17;16.70;95.80
14397;DHT22;50653;0.000;0.000;2022-09-09T04:40:46;16.70;95.80
14397;DHT22;50653;0.000;0.000;2022-09-09T04:43:12;16.60;95.80
14397;DHT22;50653;0.000;0.000;2022-09-09T04:45:40;16.70;95.80
14397;DHT22;50653;0.000;0.000;2022-09-09T04:48:07;16.70;95.70
14397;DHT22;50653;0.000;0.000;2022-09-09T04:50:33;16.70;95.50
14397;DHT22;50653;0.000;0.000;2022-09-09T04:53:03;16.60;95.50
14397;DHT22;50653;0.000;0.000;2022-09-09T04:55:31;16.70;95.60
14397;DHT22;50653;0.000;0.000;2022-09-09T04:57:57;16.70;95.30
14397;DHT22;50653;0.000;0.000;2022-09-09T05:00:24;16.60;95.40
14397;DHT22;50653;0.000;0.000;2022-09-09T05:02:50;16.60;95.40
14397;DHT22;50653;0.000;0.000;2022-09-09T05:05:17;16.60;95.40
14397;DHT22;50653;0.000;0.000;2022-09-09T05:07:46;16.60;95.50
14397;DHT22;50653;0.000;0.000;2022-09-09T05:10:13;16.60;95.50
14397;DHT22;50653;0.000;0.000;2022-09-09T05:12:41;16.60;95.50
14397;DHT22;50653;0.000;0.000;2022-09-09T05:15:07;16.60;95.50
14397;DHT22;50653;0.000;0.000;2022-09-09T05:17:33;16.60;95.60
14397;DHT22;50653;0.000;0.000;2022-09-09T05:19:59;16.60;95.70
14397;DHT22;50653;0.000;0.000;2022-09-09T05:22:25;16.60;95.70
14397;DHT22;50653;0.000;0.000;2022-09-09T05:24:52;16.70;95.60
14397;DHT22;50653;0.000;0.000;2022-09-09T05:27:19;16.70;95.50
14397;DHT22;50653;0.000;0.000;2022-09-09T05:29:48;16.70;95.40
14397;DHT22;50653;0.000;0.000;2022-09-09T05:32:14;16.70;95.40
14397;DHT22;50653;0.000;0.000;2022-09-09T05:34:43;16.70;95.40
14397;DHT22;50653;0.000;0.000;2022-09-09T05:37:09;16.80;95.30
14397;DHT22;50653;0.000;0.000;2022-09-09T05:39:36;16.70;95.40
14397;DHT22;50653;0.000;0.000;2022-09-09T05:42:03;16.70;95.50
14397;DHT22;50653;0.000;0.000;2022-09-09T05:44:30;16.70;95.50
14397;DHT22;50653;0.000;0.000;2022-09-09T05:46:57;16.80;95.50
14397;DHT22;50653;0.000;0.000;2022-09-09T05:49:23;16.80;95.70
14397;DHT22;50653;0.000;0.000;2022-09-09T05:51:49;16.80;95.80
14397;DHT22;50653;0.000;0.000;2022-09-09T05:54:17;16.80;96.10
14397;DHT22;50653;0.000;0.000;2022-09-09T05:56:46;16.80;95.90
14397;DHT22;50653;0.000;0.000;2022-09-09T05:59:13;16.90;95.80
14397;DHT22;50653;0.000;0.000;2022-09-09T06:01:40;16.90;95.70
14397;DHT22;50653;0.000;0.000;2022-09-09T06:04:07;16.80;95.70
14397;DHT22;50653;0.000;0.000;2022-09-09T06:06:36;16.80;95.90
14397;DHT22;50653;0.000;0.000;2022-09-09T06:09:06;16.80;95.80
14397;DHT22;50653;0.000;0.000;2022-09-09T06:11:35;16.80;95.60
14397;DHT22;50653;0.000;0.000;2022-09-09T06:14:02;16.70;95.60
14397;DHT22;50653;0.000;0.000;2022-09-09T06:16:30;16.80;95.60
14397;DHT22;50653;0.000;0.000;2022-09-09T06:18:58;16.80;95.60
14397;DHT22;50653;0.000;0.000;2022-09-09T06:21:26;16.80;95.80
14397;DHT22;50653;0.000;0.000;2022-09-09T06:23:51;16.80;95.90
14397;DHT22;50653;0.000;0.000;2022-09-09T06:26:21;16.80;96.20
14397;DHT22;50653;0.000;0.000;2022-09-09T06:28:50;16.80;96.40
14397;DHT22;50653;0.000;0.000;2022-09-09T06:31:20;16.80;96.60
14397;DHT22;50653;0.000;0.000;2022-09-09T06:33:49;16.80;96.60
14397;DHT22;50653;0.000;0.000;2022-09-09T06:36:23;16.80;96.60
14397;DHT22;50653;0.000;0.000;2022-09-09T06:38:49;16.90;96.60
14397;DHT22;50653;0.000;0.000;2022-09-09T06:41:18;16.90;96.70
14397;DHT22;50653;0.000;0.000;2022-09-09T06:43:45;16.90;96.80
14397;DHT22;50653;0.000;0.000;2022-09-09T06:46:14;16.80;96.40
14397;DHT22;50653;0.000;0.000;2022-09-09T06:48:40;16.70;96.60
14397;DHT22;50653;0.000;0.000;2022-09-09T06:51:16;16.80;96.60
14397;DHT22;50653;0.000;0.000;2022-09-09T06:53:43;16.80;96.50
14397;DHT22;50653;0.000;0.000;2022-09-09T06:58:39;16.90;96.30
14397;DHT22;50653;0.000;0.000;2022-09-09T07:01:12;17.00;96.20
14397;DHT22;50653;0.000;0.000;2022-09-09T07:03:38;17.00;96.30
14397;DHT22;50653;0.000;0.000;2022-09-09T07:06:05;16.90;96.30
14397;DHT22;50653;0.000;0.000;2022-09-09T07:08:31;16.90;97.00
14397;DHT22;50653;0.000;0.000;2022-09-09T07:11:05;16.90;96.90
14397;DHT22;50653;0.000;0.000;2022-09-09T07:13:32;16.90;97.30
14397;DHT22;50653;0.000;0.000;2022-09-09T07:16:06;17.00;97.40
14397;DHT22;50653;0.000;0.000;2022-09-09T07:18:32;16.90;97.60
14397;DHT22;50653;0.000;0.000;2022-09-09T07:21:00;16.90;97.50
14397;DHT22;50653;0.000;0.000;2022-09-09T07:23:26;16.90;97.60
14397;DHT22;50653;0.000;0.000;2022-09-09T07:25:52;17.00;97.30
14397;DHT22;50653;0.000;0.000;2022-09-09T07:28:19;17.00;96.90
14397;DHT22;50653;0.000;0.000;2022-09-09T07:31:00;17.00;96.80
14397;DHT22;50653;0.000;0.000;2022-09-09T07:33:31;17.00;96.80
14397;DHT22;50653;0.000;0.000;2022-09-09T07:36:18;16.90;97.00
14397;DHT22;50653;0.000;0.000;2022-09-09T07:38:52;16.90;96.80
14397;DHT22;50653;0.000;0.000;2022-09-09T07:41:43;16.90;96.90
14397;DHT22;50653;0.000;0.000;2022-09-09T07:44:12;16.90;97.30
14397;DHT22;50653;0.000;0.000;2022-09-09T07:46:39;16.90;97.40
14397;DHT22;50653;0.000;0.000;2022-09-09T07:49:09;17.00;97.70
14397;DHT22;50653;0.000;0.000;2022-09-09T07:51:37;16.90;97.60
14397;DHT22;50653;0.000;0.000;2022-09-09T07:54:06;16.90;97.60
14397;DHT22;50653;0.000;0.000;2022-09-09T07:56:34;16.90;98.30
14397;DHT22;50653;0.000;0.000;2022-09-09T07:59:00;16.90;98.10
14397;DHT22;50653;0.000;0.000;2022-09-09T08:01:29;17.00;98.20
14397;DHT22;50653;0.000;0.000;2022-09-09T08:04:04;17.00;98.40
14397;DHT22;50653;0.000;0.000;2022-09-09T08:06:37;17.10;98.60
14397;DHT22;50653;0.000;0.000;2022-09-09T08:09:06;17.00;98.60
14397;DHT22;50653;0.000;0.000;2022-09-09T08:11:32;17.00;98.10
14397;DHT22;50653;0.000;0.000;2022-09-09T08:13:59;17.10;98.90
14397;DHT22;50653;0.000;0.000;2022-09-09T08:16:28;17.00;99.20
14397;DHT22;50653;0.000;0.000;2022-09-09T08:18:55;17.00;99.60
14397;DHT22;50653;0.000;0.000;2022-09-09T08:21:29;17.10;99.90
14397;DHT22;50653;0.000;0.000;2022-09-09T08:23:58;17.20;99.50
14397;DHT22;50653;0.000;0.000;2022-09-09T08:26:27;17.20;99.90
14397;DHT22;50653;0.000;0.000;2022-09-09T08:28:55;17.20;99.90
14397;DHT22;50653;0.000;0.000;2022-09-09T08:31:29;17.10;99.90
14397;DHT22;50653;0.000;0.000;2022-09-09T08:33:55;17.00;99.90
14397;DHT22;50653;0.000;0.000;2022-09-09T08:36:24;17.10;99.90
14397;DHT22;50653;0.000;0.000;2022-09-09T08:38:52;17.10;99.90
14397;DHT22;50653;0.000;0.000;2022-09-09T08:47:54;17.10;99.90
14397;DHT22;50653;0.000;0.000;2022-09-09T08:50:29;17.10;99.90
14397;DHT22;50653;0.000;0.000;2022-09-09T08:53:02;17.10;99.90
14397;DHT22;50653;0.000;0.000;2022-09-09T08:55:48;17.10;99.90
14397;DHT22;50653;0.000;0.000;2022-09-09T08:58:31;17.10;99.90
14397;DHT22;50653;0.000;0.000;2022-09-09T09:12:48;17.20;99.90
14397;DHT22;50653;0.000;0.000;2022-09-09T09:15:21;17.30;99.90
14397;DHT22;50653;0.000;0.000;2022-09-09T09:17:50;17.20;99.90
14397;DHT22;50653;0.000;0.000;2022-09-09T09:20:21;17.20;99.90
14397;DHT22;50653;0.000;0.000;2022-09-09T09:22:52;17.10;99.90
14397;DHT22;50653;0.000;0.000;2022-09-09T09:25:22;17.20;99.90
14397;DHT22;50653;0.000;0.000;2022-09-09T09:30:39;17.20;99.90
14397;DHT22;50653;0.000;0.000;2022-09-09T09:36:09;17.30;99.90
14397;DHT22;50653;0.000;0.000;2022-09-09T09:38:37;17.40;99.90
14397;DHT22;50653;0.000;0.000;2022-09-09T09:41:03;17.40;99.90
14397;DHT22;50653;0.000;0.000;2022-09-09T09:43:32;17.30;99.90
14397;DHT22;50653;0.000;0.000;2022-09-09T09:46:16;17.40;99.90
14397;DHT22;50653;0.000;0.000;2022-09-09T09:48:44;17.40;99.90
14397;DHT22;50653;0.000;0.000;2022-09-09T09:51:14;17.40;99.90
14397;DHT22;50653;0.000;0.000;2022-09-09T09:53:44;17.40;99.90
14397;DHT22;50653;0.000;0.000;2022-09-09T09:56:13;17.40;99.90
14397;DHT22;50653;0.000;0.000;2022-09-09T10:01:24;17.50;99.90
14397;DHT22;50653;0.000;0.000;2022-09-09T10:03:53;17.50;99.90
14397;DHT22;50653;0.000;0.000;2022-09-09T10:06:30;17.50;99.90
14397;DHT22;50653;0.000;0.000;2022-09-09T10:08:56;17.40;99.90
14397;DHT22;50653;0.000;0.000;2022-09-09T10:11:41;17.40;99.90
14397;DHT22;50653;0.000;0.000;2022-09-09T10:14:20;17.40;99.90
14397;DHT22;50653;0.000;0.000;2022-09-09T10:19:36;17.40;99.90
14397;DHT22;50653;0.000;0.000;2022-09-09T10:28:01;17.40;99.90
14397;DHT22;50653;0.000;0.000;2022-09-09T10:31:05;17.40;99.90
14397;DHT22;50653;0.000;0.000;2022-09-09T10:33:45;17.50;99.90
14397;DHT22;50653;0.000;0.000;2022-09-09T10:36:19;17.50;99.90
14397;DHT22;50653;0.000;0.000;2022-09-09T10:38:47;17.50;99.90
14397;DHT22;50653;0.000;0.000;2022-09-09T10:41:18;17.50;99.90
14397;DHT22;50653;0.000;0.000;2022-09-09T10:52:37;17.60;99.90
14397;DHT22;50653;0.000;0.000;2022-09-09T10:55:13;17.60;99.90
14397;DHT22;50653;0.000;0.000;2022-09-09T11:00:19;17.70;99.90
14397;DHT22;50653;0.000;0.000;2022-09-09T11:02:52;17.70;99.90
14397;DHT22;50653;0.000;0.000;2022-09-09T11:05:32;17.70;99.90
14397;DHT22;50653;0.000;0.000;2022-09-09T11:08:15;17.70;99.90
14397;DHT22;50653;0.000;0.000;2022-09-09T11:16:33;17.70;99.90
14397;DHT22;50653;0.000;0.000;2022-09-09T11:19:29;17.70;99.90
14397;DHT22;50653;0.000;0.000;2022-09-09T11:21:56;17.70;99.90
14397;DHT22;50653;0.000;0.000;2022-09-09T11:24:30;17.70;99.90
14397;DHT22;50653;0.000;0.000;2022-09-09T11:35:46;17.70;99.90
14397;DHT22;50653;0.000;0.000;2022-09-09T11:38:28;17.60;99.90
14397;DHT22;50653;0.000;0.000;2022-09-09T11:41:06;17.70;99.90
14397;DHT22;50653;0.000;0.000;2022-09-09T11:43:44;17.70;99.90
14397;DHT22;50653;0.000;0.000;2022-09-09T11:46:13;17.70;99.90
14397;DHT22;50653;0.000;0.000;2022-09-09T11:48:45;17.80;99.90
14397;DHT22;50653;0.000;0.000;2022-09-09T11:51:24;17.70;99.90
14397;DHT22;50653;0.000;0.000;2022-09-09T11:53:53;17.80;99.90
14397;DHT22;50653;0.000;0.000;2022-09-09T11:56:42;17.80;99.90
14397;DHT22;50653;0.000;0.000;2022-09-09T11:59:26;17.80;99.90
14397;DHT22;50653;0.000;0.000;2022-09-09T12:02:02;17.90;99.90
14397;DHT22;50653;0.000;0.000;2022-09-09T12:07:01;17.90;99.90
14397;DHT22;50653;0.000;0.000;2022-09-09T12:09:58;17.90;99.90
14397;DHT22;50653;0.000;0.000;2022-09-09T12:12:37;17.90;99.90
14397;DHT22;50653;0.000;0.000;2022-09-09T12:17:45;17.90;99.90
14397;DHT22;50653;0.000;0.000;2022-09-09T12:20:23;17.90;99.90
14397;DHT22;50653;0.000;0.000;2022-09-09T12:31:14;17.90;99.90
14397;DHT22;50653;0.000;0.000;2022-09-09T12:33:44;17.90;99.90
14397;DHT22;50653;0.000;0.000;2022-09-09T12:36:21;18.00;99.90
14397;DHT22;50653;0.000;0.000;2022-09-09T12:38:48;18.00;99.90
14397;DHT22;50653;0.000;0.000;2022-09-09T12:41:26;17.90;99.90
14397;DHT22;50653;0.000;0.000;2022-09-09T12:44:04;17.80;99.90
14397;DHT22;50653;0.000;0.000;2022-09-09T12:46:38;17.80;99.90
14397;DHT22;50653;0.000;0.000;2022-09-09T12:49:18;17.90;99.90
14397;DHT22;50653;0.000;0.000;2022-09-09T12:51:49;17.90;99.90
14397;DHT22;50653;0.000;0.000;2022-09-09T12:54:15;17.70;99.90
14397;DHT22;50653;0.000;0.000;2022-09-09T12:56:45;17.80;99.90
14397;DHT22;50653;0.000;0.000;2022-09-09T12:59:26;17.80;99.90
14397;DHT22;50653;0.000;0.000;2022-09-09T13:01:59;17.80;99.90
14397;DHT22;50653;0.000;0.000;2022-09-09T13:04:25;17.80;99.90
14397;DHT22;50653;0.000;0.000;2022-09-09T13:06:51;17.70;99.90
14397;DHT22;50653;0.000;0.000;2022-09-09T13:09:21;17.80;99.90
14397;DHT22;50653;0.000;0.000;2022-09-09T13:11:50;17.80;99.90
14397;DHT22;50653;0.000;0.000;2022-09-09T13:14:28;17.80;99.90
14397;DHT22;50653;0.000;0.000;2022-09-09T13:16:58;17.70;99.90
14397;DHT22;50653;0.000;0.000;2022-09-09T13:19:24;17.60;99.90
14397;DHT22;50653;0.000;0.000;2022-09-09T13:21:54;17.50;99.90
14397;DHT22;50653;0.000;0.000;2022-09-09T13:24:32;17.60;99.90
14397;DHT22;50653;0.000;0.000;2022-09-09T13:27:27;17.60;99.90
14397;DHT22;50653;0.000;0.000;2022-09-09T13:29:54;17.60;99.90
14397;DHT22;50653;0.000;0.000;2022-09-09T13:32:21;17.60;99.90
14397;DHT22;50653;0.000;0.000;2022-09-09T13:35:23;17.60;99.90
14397;DHT22;50653;0.000;0.000;2022-09-09T13:37:49;17.60;99.90
14397;DHT22;50653;0.000;0.000;2022-09-09T13:40:20;17.60;99.90
14397;DHT22;50653;0.000;0.000;2022-09-09T13:42:47;17.60;99.90
14397;DHT22;50653;0.000;0.000;2022-09-09T13:45:21;17.40;99.90
14397;DHT22;50653;0.000;0.000;2022-09-09T13:47:47;17.30;99.90
14397;DHT22;50653;0.000;0.000;2022-09-09T13:50:29;17.40;99.90
14397;DHT22;50653;0.000;0.000;2022-09-09T13:52:57;17.40;99.90
14397;DHT22;50653;0.000;0.000;2022-09-09T13:55:36;17.30;99.90
14397;DHT22;50653;0.000;0.000;2022-09-09T13:58:03;17.30;99.90
14397;DHT22;50653;0.000;0.000;2022-09-09T14:00:34;17.30;99.90
14397;DHT22;50653;0.000;0.000;2022-09-09T14:03:00;17.30;99.90
14397;DHT22;50653;0.000;0.000;2022-09-09T14:05:27;17.40;99.90
14397;DHT22;50653;0.000;0.000;2022-09-09T14:07:53;17.30;99.90
14397;DHT22;50653;0.000;0.000;2022-09-09T14:10:19;17.30;99.90
14397;DHT22;50653;0.000;0.000;2022-09-09T14:12:46;17.30;99.90
14397;DHT22;50653;0.000;0.000;2022-09-09T14:15:12;17.40;99.90
14397;DHT22;50653;0.000;0.000;2022-09-09T14:17:38;17.40;99.90
14397;DHT22;50653;0.000;0.000;2022-09-09T14:20:05;17.40;99.90
14397;DHT22;50653;0.000;0.000;2022-09-09T14:22:34;17.20;99.90
14397;DHT22;50653;0.000;0.000;2022-09-09T14:25:00;17.20;99.90
14397;DHT22;50653;0.000;0.000;2022-09-09T14:27:26;17.30;99.90
14397;DHT22;50653;0.000;0.000;2022-09-09T14:29:52;17.30;99.90
14397;DHT22;50653;0.000;0.000;2022-09-09T14:32:18;17.30;99.90
14397;DHT22;50653;0.000;0.000;2022-09-09T14:34:44;17.30;99.90
14397;DHT22;50653;0.000;0.000;2022-09-09T14:37:10;17.30;99.90
14397;DHT22;50653;0.000;0.000;2022-09-09T14:39:36;17.20;99.90
14397;DHT22;50653;0.000;0.000;2022-09-09T14:42:01;17.20;99.90
14397;DHT22;50653;0.000;0.000;2022-09-09T14:44:28;17.20;99.90
14397;DHT22;50653;0.000;0.000;2022-09-09T14:46:53;17.20;99.90
14397;DHT22;50653;0.000;0.000;2022-09-09T14:49:19;17.20;99.90
14397;DHT22;50653;0.000;0.000;2022-09-09T14:51:45;17.20;99.90
14397;DHT22;50653;0.000;0.000;2022-09-09T14:54:11;17.30;99.90
14397;DHT22;50653;0.000;0.000;2022-09-09T14:56:37;17.20;99.90
14397;DHT22;50653;0.000;0.000;2022-09-09T14:59:03;17.20;99.90
14397;DHT22;50653;0.000;0.000;2022-09-09T15:01:30;17.20;99.90
14397;DHT22;50653;0.000;0.000;2022-09-09T15:03:59;17.30;99.90
14397;DHT22;50653;0.000;0.000;2022-09-09T15:06:26;17.30;99.90
14397;DHT22;50653;0.000;0.000;2022-09-09T15:08:53;17.30;99.90
14397;DHT22;50653;0.000;0.000;2022-09-09T15:11:19;17.30;99.90
14397;DHT22;50653;0.000;0.000;2022-09-09T15:13:45;17.30;99.90
14397;DHT22;50653;0.000;0.000;2022-09-09T15:16:14;17.30;99.90
14397;DHT22;50653;0.000;0.000;2022-09-09T15:18:41;17.30;99.90
14397;DHT22;50653;0.000;0.000;2022-09-09T15:21:11;17.30;99.90
14397;DHT22;50653;0.000;0.000;2022-09-09T15:23:38;17.30;99.90
14397;DHT22;50653;0.000;0.000;2022-09-09T15:26:04;17.30;99.90
14397;DHT22;50653;0.000;0.000;2022-09-09T15:28:32;17.20;99.90
14397;DHT22;50653;0.000;0.000;2022-09-09T15:30:58;17.30;99.90
14397;DHT22;50653;0.000;0.000;2022-09-09T15:33:31;17.30;99.90
14397;DHT22;50653;0.000;0.000;2022-09-09T15:35:57;17.40;99.90
14397;DHT22;50653;0.000;0.000;2022-09-09T15:38:22;17.40;99.90
14397;DHT22;50653;0.000;0.000;2022-09-09T15:40:56;17.40;99.90
14397;DHT22;50653;0.000;0.000;2022-09-09T15:43:23;17.50;99.90
14397;DHT22;50653;0.000;0.000;2022-09-09T15:45:54;17.40;99.90
14397;DHT22;50653;0.000;0.000;2022-09-09T15:48:30;17.40;99.90
14397;DHT22;50653;0.000;0.000;2022-09-09T15:51:04;17.40;99.90
14397;DHT22;50653;0.000;0.000;2022-09-09T15:53:30;17.30;99.90
14397;DHT22;50653;0.000;0.000;2022-09-09T15:55:58;17.30;99.90
14397;DHT22;50653;0.000;0.000;2022-09-09T15:58:24;17.40;99.90
14397;DHT22;50653;0.000;0.000;2022-09-09T16:00:49;17.40;99.90
14397;DHT22;50653;0.000;0.000;2022-09-09T16:03:15;17.40;99.90
14397;DHT22;50653;0.000;0.000;2022-09-09T16:05:41;17.50;99.90
14397;DHT22;50653;0.000;0.000;2022-09-09T16:08:06;17.50;99.90
14397;DHT22;50653;0.000;0.000;2022-09-09T16:10:32;17.40;99.90
14397;DHT22;50653;0.000;0.000;2022-09-09T16:12:58;17.30;99.90
14397;DHT22;50653;0.000;0.000;2022-09-09T16:15:24;17.30;99.90
14397;DHT22;50653;0.000;0.000;2022-09-09T16:17:53;17.30;99.90
14397;DHT22;50653;0.000;0.000;2022-09-09T16:20:19;17.30;99.90
14397;DHT22;50653;0.000;0.000;2022-09-09T16:22:44;17.30;99.90
14397;DHT22;50653;0.000;0.000;2022-09-09T16:25:10;17.30;99.90
14397;DHT22;50653;0.000;0.000;2022-09-09T16:27:36;17.30;99.90
14397;DHT22;50653;0.000;0.000;2022-09-09T16:30:01;17.30;99.90
14397;DHT22;50653;0.000;0.000;2022-09-09T16:32:27;17.20;99.90
14397;DHT22;50653;0.000;0.000;2022-09-09T16:34:53;17.20;99.90
14397;DHT22;50653;0.000;0.000;2022-09-09T16:37:19;17.30;99.90
14397;DHT22;50653;0.000;0.000;2022-09-09T16:39:44;17.20;99.90
14397;DHT22;50653;0.000;0.000;2022-09-09T16:42:10;17.20;99.90
14397;DHT22;50653;0.000;0.000;2022-09-09T16:44:36;17.20;99.90
14397;DHT22;50653;0.000;0.000;2022-09-09T16:47:01;17.20;99.90
14397;DHT22;50653;0.000;0.000;2022-09-09T16:49:27;17.30;99.90
14397;DHT22;50653;0.000;0.000;2022-09-09T16:51:53;17.30;99.90
14397;DHT22;50653;0.000;0.000;2022-09-09T16:54:19;17.20;99.90
14397;DHT22;50653;0.000;0.000;2022-09-09T16:56:47;17.20;99.90
14397;DHT22;50653;0.000;0.000;2022-09-09T16:59:18;17.20;99.90
14397;DHT22;50653;0.000;0.000;2022-09-09T17:01:46;17.20;99.90
14397;DHT22;50653;0.000;0.000;2022-09-09T17:04:14;17.10;99.90
14397;DHT22;50653;0.000;0.000;2022-09-09T17:06:46;17.10;99.90
14397;DHT22;50653;0.000;0.000;2022-09-09T17:09:12;17.10;99.90
14397;DHT22;50653;0.000;0.000;2022-09-09T17:11:39;17.20;99.90
14397;DHT22;50653;0.000;0.000;2022-09-09T17:14:06;17.10;99.90
14397;DHT22;50653;0.000;0.000;2022-09-09T17:16:33;17.10;99.90
14397;DHT22;50653;0.000;0.000;2022-09-09T17:19:03;17.10;99.90
14397;DHT22;50653;0.000;0.000;2022-09-09T17:21:30;17.10;99.90
14397;DHT22;50653;0.000;0.000;2022-09-09T17:23:56;17.10;99.90
14397;DHT22;50653;0.000;0.000;2022-09-09T17:26:26;17.20;99.90
14397;DHT22;50653;0.000;0.000;2022-09-09T17:28:52;17.00;99.90
14397;DHT22;50653;0.000;0.000;2022-09-09T17:31:19;17.00;99.90
14397;DHT22;50653;0.000;0.000;2022-09-09T17:33:47;17.00;99.90
14397;DHT22;50653;0.000;0.000;2022-09-09T17:36:18;17.00;99.90
14397;DHT22;50653;0.000;0.000;2022-09-09T17:38:45;17.00;99.90
14397;DHT22;50653;0.000;0.000;2022-09-09T17:41:31;17.00;99.90
14397;DHT22;50653;0.000;0.000;2022-09-09T17:43:57;17.00;99.90
14397;DHT22;50653;0.000;0.000;2022-09-09T17:46:35;17.00;99.90
14397;DHT22;50653;0.000;0.000;2022-09-09T17:49:04;17.00;99.90
14397;DHT22;50653;0.000;0.000;2022-09-09T17:51:31;17.00;99.90
14397;DHT22;50653;0.000;0.000;2022-09-09T17:54:00;17.00;99.90
14397;DHT22;50653;0.000;0.000;2022-09-09T17:56:27;17.00;99.90
14397;DHT22;50653;0.000;0.000;2022-09-09T17:58:56;17.00;99.90
14397;DHT22;50653;0.000;0.000;2022-09-09T18:01:29;17.00;99.90